Time;durP1;ratioP1;P1;durP2;ratioP2;P2;SDS_P1;SDS_P2;PMS_P1;PMS_P2;Temp;Humidity;BMP_temperature;BMP_pressure;BME280_temperature;BME280_humidity;BME280_pressure;Samples;Min_cycle;Max_cycle;Signal;HPM_P1;HPM_P2
2021/03/11 00:00:25;;;;;;;14.38;5.35;;;12.80;75.20;;;;;;5006281;28;20118;-80
2021/03/11 00:02:51;;;;;;;19.75;5.07;;;12.80;75.10;;;;;;4989298;28;20045;-80
2021/03/11 00:05:18;;;;;;;16.00;4.53;;;12.70;74.90;;;;;;5005885;28;20474;-82
2021/03/11 00:07:44;;;;;;;15.18;5.53;;;12.70;74.90;;;;;;5021539;28;20029;-82
2021/03/11 00:10:11;;;;;;;18.85;4.78;;;12.70;74.90;;;;;;5005560;28;20045;-79
2021/03/11 00:12:38;;;;;;;21.73;5.05;;;12.60;74.80;;;;;;5004713;28;20417;-79
2021/03/11 00:15:14;;;;;;;18.52;5.88;;;12.60;74.80;;;;;;5005778;28;20389;-79
2021/03/11 00:17:41;;;;;;;20.92;6.30;;;12.60;74.90;;;;;;5001258;28;20216;-78
2021/03/11 00:20:18;;;;;;;16.08;6.00;;;12.50;74.70;;;;;;5004024;28;20030;-79
2021/03/11 00:22:44;;;;;;;22.65;5.22;;;12.50;74.70;;;;;;4986155;28;20426;-79
2021/03/11 00:25:13;;;;;;;20.70;5.18;;;12.40;74.60;;;;;;5004678;28;20033;-78
2021/03/11 00:27:40;;;;;;;17.83;6.20;;;12.40;74.60;;;;;;4988343;28;20060;-79
2021/03/11 00:30:08;;;;;;;16.92;5.43;;;12.40;74.70;;;;;;5004821;28;20094;-78
2021/03/11 00:32:35;;;;;;;14.23;5.55;;;12.30;74.60;;;;;;5021693;28;20067;-79
2021/03/11 00:35:01;;;;;;;22.90;6.60;;;12.30;74.70;;;;;;4988717;28;20068;-78
2021/03/11 00:37:27;;;;;;;18.75;5.95;;;12.30;74.70;;;;;;5006078;28;20136;-79
2021/03/11 00:39:53;;;;;;;23.10;6.30;;;12.20;74.60;;;;;;5004199;28;20480;-79
2021/03/11 00:42:19;;;;;;;18.20;5.75;;;12.20;74.60;;;;;;5004677;28;20053;-79
2021/03/11 00:44:45;;;;;;;19.85;6.57;;;12.20;74.60;;;;;;5004520;28;20053;-83
2021/03/11 00:47:11;;;;;;;19.48;5.38;;;12.10;74.50;;;;;;5004255;28;20125;-83
2021/03/11 00:49:37;;;;;;;18.65;6.57;;;12.10;75.00;;;;;;5004622;28;20040;-82
2021/03/11 00:52:04;;;;;;;20.45;6.50;;;12.10;74.50;;;;;;4988169;28;20038;-81
2021/03/11 00:54:30;;;;;;;14.32;5.50;;;12.10;74.50;;;;;;5004695;28;20084;-82
2021/03/11 00:56:56;;;;;;;22.52;6.22;;;12.10;74.50;;;;;;5004430;28;20389;-81
2021/03/11 00:59:22;;;;;;;19.85;6.47;;;12.00;74.30;;;;;;5003908;28;20053;-82
2021/03/11 01:01:49;;;;;;;28.38;8.02;;;12.00;74.30;;;;;;5004686;28;20378;-82
2021/03/11 01:04:15;;;;;;;33.00;8.52;;;12.00;74.30;;;;;;5020464;28;20034;-82
2021/03/11 01:06:42;;;;;;;18.80;6.35;;;12.00;74.30;;;;;;5003936;28;20509;-81
2021/03/11 01:09:12;;;;;;;23.08;7.43;;;12.00;74.30;;;;;;5004039;28;20128;-81
2021/03/11 01:11:38;;;;;;;20.45;6.30;;;11.90;74.20;;;;;;5003875;28;20120;-82
2021/03/11 01:14:04;;;;;;;26.55;6.60;;;12.00;74.40;;;;;;5004448;28;20124;-81
2021/03/11 01:16:30;;;;;;;23.95;7.43;;;11.90;74.20;;;;;;5004124;28;20038;-81
2021/03/11 01:18:56;;;;;;;26.17;6.28;;;11.90;74.20;;;;;;5003230;28;20026;-81
2021/03/11 01:21:22;;;;;;;19.95;6.22;;;11.80;74.10;;;;;;5004178;28;20044;-82
2021/03/11 01:23:48;;;;;;;24.55;7.43;;;11.80;74.10;;;;;;5004057;28;20106;-82
2021/03/11 01:26:14;;;;;;;20.30;7.70;;;11.70;74.00;;;;;;5005543;28;20501;-81
2021/03/11 01:28:40;;;;;;;27.95;8.02;;;11.80;74.10;;;;;;4984196;28;20035;-81
2021/03/11 01:31:06;;;;;;;26.73;8.55;;;11.80;74.10;;;;;;4985920;28;20034;-81
2021/03/11 01:33:32;;;;;;;25.63;8.55;;;11.70;74.00;;;;;;4991433;28;20038;-83
2021/03/11 01:35:58;;;;;;;22.88;7.40;;;11.70;74.00;;;;;;4987871;28;20022;-81
2021/03/11 01:38:24;;;;;;;23.45;6.95;;;11.70;74.00;;;;;;5003863;28;20466;-83
2021/03/11 01:40:50;;;;;;;27.75;7.97;;;11.70;74.00;;;;;;5003550;28;20065;-80
2021/03/11 01:43:16;;;;;;;25.45;8.25;;;11.60;73.80;;;;;;5003430;28;20167;-81
2021/03/11 01:45:42;;;;;;;24.77;7.88;;;11.60;73.80;;;;;;4986873;28;20406;-83
2021/03/11 01:48:08;;;;;;;26.42;6.70;;;11.60;73.80;;;;;;4987663;28;20049;-82
2021/03/11 01:50:34;;;;;;;24.92;8.13;;;11.60;73.80;;;;;;5003720;28;20100;-80
2021/03/11 01:53:01;;;;;;;25.08;6.93;;;11.60;73.80;;;;;;5003066;28;20034;-81
2021/03/11 01:55:32;;;;;;;21.75;6.65;;;11.60;73.80;;;;;;5003561;28;20038;-81
2021/03/11 01:57:58;;;;;;;23.60;7.28;;;11.60;73.80;;;;;;5003749;28;20214;-80
2021/03/11 02:00:24;;;;;;;19.63;7.43;;;11.50;73.60;;;;;;5003910;28;20042;-82
2021/03/11 02:02:51;;;;;;;17.98;6.47;;;11.50;73.60;;;;;;5003353;28;20034;-81
2021/03/11 02:05:19;;;;;;;25.10;8.73;;;11.50;73.60;;;;;;5004910;28;20519;-80
2021/03/11 02:07:46;;;;;;;26.13;7.15;;;11.40;73.50;;;;;;5003515;28;20125;-82
2021/03/11 02:10:17;;;;;;;20.30;7.05;;;11.40;73.50;;;;;;5020057;28;20495;-79
2021/03/11 02:13:16;;;;;;;18.52;6.53;;;11.40;73.50;;;;;;5003226;28;20030;-82
2021/03/11 02:16:06;;;;;;;22.40;6.60;;;11.40;73.60;;;;;;4994719;28;20038;-81
2021/03/11 02:18:45;;;;;;;22.98;7.18;;;11.40;73.60;;;;;;5005002;28;20409;-82
2021/03/11 02:21:25;;;;;;;19.33;6.93;;;11.40;73.60;;;;;;5019433;28;20582;-80
2021/03/11 02:24:15;;;;;;;19.25;6.30;;;11.40;73.50;;;;;;5020086;28;20829;-79
2021/03/11 02:27:05;;;;;;;32.08;7.28;;;11.30;73.40;;;;;;5005319;28;20442;-79
2021/03/11 02:29:35;;;;;;;25.33;8.80;;;11.30;73.40;;;;;;5003812;28;20174;-79
2021/03/11 02:32:03;;;;;;;30.00;7.90;;;11.30;73.30;;;;;;5007667;28;20025;-80
2021/03/11 02:34:41;;;;;;;25.52;7.50;;;11.30;73.30;;;;;;5009598;28;20920;-81
2021/03/11 02:37:33;;;;;;;25.33;7.20;;;11.30;73.40;;;;;;5009971;28;20479;-81
2021/03/11 02:40:04;;;;;;;23.05;7.07;;;11.30;73.40;;;;;;4989868;28;20560;-80
2021/03/11 02:42:33;;;;;;;18.75;6.72;;;11.20;73.20;;;;;;5008824;28;20042;-82
2021/03/11 02:44:59;;;;;;;24.00;8.23;;;11.20;73.20;;;;;;5007879;28;20034;-81
2021/03/11 02:47:26;;;;;;;20.50;6.93;;;11.20;73.20;;;;;;5011346;28;20121;-81
2021/03/11 02:49:54;;;;;;;31.55;8.70;;;11.20;73.20;;;;;;5011652;28;20397;-81
2021/03/11 02:52:21;;;;;;;22.60;7.22;;;11.20;73.20;;;;;;5011390;28;20029;-80
2021/03/11 02:54:48;;;;;;;18.50;7.95;;;11.20;73.20;;;;;;5011325;28;20081;-80
2021/03/11 02:57:18;;;;;;;21.35;7.90;;;11.20;73.20;;;;;;5012252;28;20034;-81
2021/03/11 02:59:45;;;;;;;24.42;7.07;;;11.20;73.20;;;;;;5012207;28;20128;-81
2021/03/11 03:02:13;;;;;;;26.10;7.93;;;11.20;73.20;;;;;;5011011;28;20042;-79
2021/03/11 03:04:41;;;;;;;24.75;8.07;;;11.20;73.20;;;;;;4994770;28;20139;-81
2021/03/11 03:07:08;;;;;;;15.65;6.18;;;11.20;73.20;;;;;;5010905;28;20036;-81
2021/03/11 03:09:35;;;;;;;23.88;7.32;;;11.20;73.20;;;;;;5010434;28;20029;-80
2021/03/11 03:12:02;;;;;;;21.10;7.63;;;11.10;73.00;;;;;;5011059;28;20208;-81
2021/03/11 03:14:28;;;;;;;24.23;7.60;;;11.10;73.00;;;;;;5010790;28;20077;-81
2021/03/11 03:16:55;;;;;;;21.33;7.10;;;11.10;73.00;;;;;;5010763;28;20083;-82
2021/03/11 03:19:21;;;;;;;24.55;8.10;;;11.10;73.00;;;;;;5008357;28;20100;-81
2021/03/11 03:21:48;;;;;;;20.83;7.40;;;11.10;73.00;;;;;;5010774;28;20029;-81
2021/03/11 03:24:18;;;;;;;36.05;8.52;;;11.10;73.00;;;;;;5010788;28;20029;-81
2021/03/11 03:26:44;;;;;;;26.25;7.82;;;11.10;72.90;;;;;;5010310;28;20030;-84
2021/03/11 03:29:10;;;;;;;22.58;7.15;;;11.10;72.90;;;;;;5010507;28;20037;-82
2021/03/11 03:31:36;;;;;;;32.15;8.55;;;11.10;72.90;;;;;;4994204;28;20026;-80
2021/03/11 03:34:02;;;;;;;26.73;8.18;;;11.10;72.90;;;;;;5010473;28;20030;-81
2021/03/11 03:36:28;;;;;;;22.27;7.13;;;11.10;72.90;;;;;;5011009;28;20029;-81
2021/03/11 03:38:55;;;;;;;22.88;8.43;;;11.10;72.90;;;;;;5010906;28;20045;-81
2021/03/11 03:41:24;;;;;;;25.30;8.50;;;11.10;72.90;;;;;;5010273;28;20048;-81
2021/03/11 03:43:51;;;;;;;22.48;7.32;;;11.00;72.70;;;;;;5010421;28;20030;-81
2021/03/11 03:46:22;;;;;;;27.67;8.05;;;11.00;72.70;;;;;;5009944;28;20481;-81
2021/03/11 03:48:50;;;;;;;28.45;8.70;;;11.00;72.70;;;;;;5009571;28;20121;-80
2021/03/11 03:51:20;;;;;;;23.02;6.57;;;11.00;72.80;;;;;;5009800;28;20474;-82
2021/03/11 03:53:50;;;;;;;25.50;6.25;;;11.00;72.80;;;;;;5012048;28;20037;-82
2021/03/11 03:56:22;;;;;;;28.52;8.57;;;11.00;72.80;;;;;;5011147;28;20041;-80
2021/03/11 03:58:49;;;;;;;24.25;7.93;;;11.00;72.80;;;;;;5010000;28;20453;-81
2021/03/11 04:01:17;;;;;;;26.05;8.20;;;11.00;72.80;;;;;;5010904;28;20069;-81
2021/03/11 04:03:43;;;;;;;22.00;7.05;;;11.00;72.80;;;;;;5009522;28;20097;-82
2021/03/11 04:06:12;;;;;;;29.13;7.57;;;10.90;72.80;;;;;;5009438;28;20037;-80
2021/03/11 04:08:41;;;;;;;21.60;8.18;;;10.90;72.60;;;;;;5009375;28;20085;-80
2021/03/11 04:11:08;;;;;;;21.30;6.85;;;10.90;72.60;;;;;;5009622;28;20036;-80
2021/03/11 04:13:34;;;;;;;27.40;8.00;;;10.90;72.50;;;;;;5009272;28;20029;-82
2021/03/11 04:16:01;;;;;;;17.35;7.35;;;10.90;72.50;;;;;;5009670;28;20034;-80
2021/03/11 04:18:27;;;;;;;29.67;8.55;;;10.90;72.50;;;;;;5010786;28;20103;-80
2021/03/11 04:20:54;;;;;;;26.55;8.68;;;10.90;72.50;;;;;;5008993;28;20065;-81
2021/03/11 04:23:21;;;;;;;29.98;7.93;;;10.90;72.50;;;;;;5011161;28;20045;-80
2021/03/11 04:25:48;;;;;;;25.70;7.40;;;10.90;72.50;;;;;;5009483;28;20026;-80
2021/03/11 04:28:14;;;;;;;27.70;6.88;;;10.90;72.50;;;;;;5009244;28;20125;-81
2021/03/11 04:30:40;;;;;;;29.20;8.73;;;10.90;72.50;;;;;;5010834;28;20053;-80
2021/03/11 04:33:06;;;;;;;23.77;6.75;;;10.90;72.40;;;;;;5008662;28;20057;-80
2021/03/11 04:35:33;;;;;;;23.92;8.43;;;10.80;72.30;;;;;;5009231;28;20041;-81
2021/03/11 04:37:59;;;;;;;28.63;8.07;;;10.90;72.40;;;;;;5009142;28;20509;-80
2021/03/11 04:40:25;;;;;;;19.50;7.28;;;10.80;72.30;;;;;;5009260;28;20048;-80
2021/03/11 04:42:52;;;;;;;29.02;8.02;;;10.90;72.40;;;;;;5009331;28;20091;-80
2021/03/11 04:45:18;;;;;;;31.60;8.02;;;10.80;72.20;;;;;;5009304;28;20188;-80
2021/03/11 04:47:45;;;;;;;24.20;7.57;;;10.90;72.40;;;;;;5008107;28;20057;-84
2021/03/11 04:50:12;;;;;;;25.88;8.15;;;10.90;72.40;;;;;;5009936;28;20022;-80
2021/03/11 04:52:39;;;;;;;26.17;8.02;;;10.80;72.20;;;;;;5008433;28;20030;-81
2021/03/11 04:55:06;;;;;;;21.50;7.18;;;10.90;72.40;;;;;;5008786;28;20026;-80
2021/03/11 04:57:32;;;;;;;26.35;8.23;;;10.80;72.20;;;;;;5008913;28;20092;-80
2021/03/11 04:59:59;;;;;;;24.08;7.72;;;10.80;72.20;;;;;;5008561;28;20476;-80
2021/03/11 05:02:34;;;;;;;19.73;6.72;;;10.90;72.40;;;;;;5008399;28;20038;-81
2021/03/11 05:05:03;;;;;;;25.10;8.57;;;10.90;72.30;;;;;;5008815;28;20413;-81
2021/03/11 05:07:29;;;;;;;26.00;7.60;;;10.90;72.30;;;;;;5010277;28;20394;-80
2021/03/11 05:09:55;;;;;;;20.95;6.90;;;10.80;72.10;;;;;;5008328;28;20429;-79
2021/03/11 05:12:21;;;;;;;19.05;7.00;;;10.90;72.30;;;;;;5008511;28;20040;-79
2021/03/11 05:14:47;;;;;;;26.35;8.35;;;10.90;72.30;;;;;;5008217;28;20029;-81
2021/03/11 05:17:13;;;;;;;21.38;7.10;;;10.80;72.10;;;;;;5007628;28;20041;-82
2021/03/11 05:19:38;;;;;;;23.13;6.53;;;10.90;72.30;;;;;;5008240;28;20393;-81
2021/03/11 05:22:04;;;;;;;26.92;8.52;;;10.90;72.20;;;;;;4992051;28;20036;-80
2021/03/11 05:24:30;;;;;;;24.00;7.53;;;10.90;72.20;;;;;;5009683;28;20045;-80
2021/03/11 05:26:56;;;;;;;24.52;6.45;;;10.80;72.00;;;;;;5008211;28;20056;-81
2021/03/11 05:29:22;;;;;;;23.88;6.60;;;10.90;72.20;;;;;;5008380;28;20026;-81
2021/03/11 05:31:48;;;;;;;21.92;7.30;;;10.80;72.00;;;;;;5008438;28;20410;-79
2021/03/11 05:34:14;;;;;;;25.00;8.18;;;10.90;72.20;;;;;;5008753;28;20398;-79
2021/03/11 05:36:40;;;;;;;24.60;7.78;;;10.90;72.20;;;;;;5008239;28;20514;-80
2021/03/11 05:39:08;;;;;;;19.13;7.00;;;10.90;72.10;;;;;;5009543;28;20070;-80
2021/03/11 05:41:38;;;;;;;18.98;6.65;;;10.90;72.10;;;;;;5008527;28;20046;-81
2021/03/11 05:44:06;;;;;;;30.48;7.97;;;10.90;72.10;;;;;;5008349;28;20049;-78
2021/03/11 05:46:37;;;;;;;24.02;7.95;;;10.90;72.10;;;;;;5007845;28;20050;-80
2021/03/11 05:49:03;;;;;;;34.13;7.53;;;10.90;72.10;;;;;;5018897;28;20033;-81
2021/03/11 05:51:29;;;;;;;21.42;6.53;;;10.90;72.00;;;;;;5024566;28;20048;-80
2021/03/11 05:53:58;;;;;;;21.40;6.28;;;10.90;72.00;;;;;;5008716;28;20040;-81
2021/03/11 05:56:24;;;;;;;23.70;7.50;;;10.90;72.00;;;;;;5008145;28;20278;-81
2021/03/11 05:58:51;;;;;;;23.38;8.57;;;10.90;72.00;;;;;;5011620;28;20558;-80
2021/03/11 06:01:18;;;;;;;24.38;7.57;;;10.90;72.00;;;;;;5005194;28;20536;-84
2021/03/11 06:03:47;;;;;;;28.23;7.10;;;10.90;72.00;;;;;;4975786;28;20022;-84
2021/03/11 06:06:15;;;;;;;23.42;8.15;;;10.90;71.90;;;;;;4970897;28;20189;-81
2021/03/11 06:08:42;;;;;;;30.05;9.18;;;10.90;71.90;;;;;;4998326;28;20476;-82
2021/03/11 06:11:08;;;;;;;21.92;6.53;;;10.90;71.90;;;;;;5008236;28;20634;-82
2021/03/11 06:13:35;;;;;;;22.77;7.93;;;10.90;71.90;;;;;;5008705;28;20492;-89
2021/03/11 06:16:07;;;;;;;19.48;7.43;;;10.90;71.90;;;;;;5008715;28;20029;-83
2021/03/11 06:18:34;;;;;;;26.65;7.78;;;10.80;71.80;;;;;;5007298;28;20028;-84
2021/03/11 06:21:02;;;;;;;20.88;6.28;;;10.80;71.80;;;;;;5008316;28;20097;-85
2021/03/11 06:23:31;;;;;;;27.13;7.63;;;10.90;72.00;;;;;;4992012;28;20084;-83
2021/03/11 06:25:58;;;;;;;22.95;7.60;;;10.80;71.80;;;;;;5010134;28;20508;-84
2021/03/11 06:28:57;;;;;;;23.63;8.18;;;10.80;71.80;;;;;;5019767;28;20029;-87
2021/03/11 06:31:33;;;;;;;23.48;7.20;;;10.80;71.90;;;;;;4996271;28;20030;-84
2021/03/11 06:34:00;;;;;;;22.48;6.57;;;10.70;71.70;;;;;;4991689;28;20037;-80
2021/03/11 06:36:31;;;;;;;19.88;6.85;;;10.80;71.90;;;;;;4991561;28;20029;-87
2021/03/11 06:39:07;;;;;;;21.45;7.25;;;10.80;71.90;;;;;;5008616;28;20061;-83
2021/03/11 06:41:43;;;;;;;28.15;9.32;;;10.70;71.70;;;;;;5008813;28;20378;-85
2021/03/11 06:44:09;;;;;;;23.95;7.28;;;10.70;71.80;;;;;;4991944;28;20034;-84
2021/03/11 06:46:35;;;;;;;22.05;7.90;;;10.70;71.80;;;;;;5007193;28;20149;-84
2021/03/11 06:49:09;;;;;;;21.15;7.68;;;10.70;71.80;;;;;;5005186;28;20159;-85
2021/03/11 06:51:35;;;;;;;26.50;7.47;;;10.70;71.90;;;;;;4997674;28;20034;-86
2021/03/11 06:54:01;;;;;;;28.48;6.93;;;10.70;71.90;;;;;;5007918;28;20022;-82
2021/03/11 06:56:28;;;;;;;24.38;8.15;;;10.60;71.70;;;;;;5007624;28;20129;-81
2021/03/11 06:58:55;;;;;;;22.73;7.65;;;10.70;71.90;;;;;;5003866;28;20045;-83
2021/03/11 07:01:22;;;;;;;23.13;7.22;;;10.70;71.90;;;;;;5003709;28;20222;-81
2021/03/11 07:03:49;;;;;;;25.02;8.25;;;10.70;71.90;;;;;;5004522;28;20026;-84
2021/03/11 07:06:38;;;;;;;27.63;7.97;;;10.70;71.90;;;;;;4971846;28;20526;-85
2021/03/11 07:09:06;;;;;;;24.50;6.72;;;10.70;71.90;;;;;;5007118;28;20494;-84
2021/03/11 07:11:32;;;;;;;24.30;8.82;;;10.70;71.90;;;;;;5006518;28;21109;-87
2021/03/11 07:14:02;;;;;;;26.50;7.22;;;10.80;72.10;;;;;;5007456;28;20033;-88
2021/03/11 07:16:28;;;;;;;18.27;6.15;;;10.80;72.10;;;;;;5008191;28;20029;-83
2021/03/11 07:19:14;;;;;;;21.45;7.43;;;10.80;72.00;;;;;;5006733;28;20034;-84
2021/03/11 07:21:55;;;;;;;20.42;6.53;;;10.90;72.10;;;;;;5000840;28;20042;-78
2021/03/11 07:24:36;;;;;;;22.63;8.00;;;10.90;72.00;;;;;;5002667;28;20739;-80
2021/03/11 07:27:03;;;;;;;22.42;7.40;;;11.00;72.20;;;;;;5005152;28;20033;-78
2021/03/11 07:29:29;;;;;;;26.45;7.18;;;11.00;72.10;;;;;;5005980;28;20026;-79
2021/03/11 07:31:57;;;;;;;19.92;6.03;;;11.10;72.20;;;;;;5005341;28;20033;-79
2021/03/11 07:34:33;;;;;;;24.52;8.35;;;11.10;72.10;;;;;;5002196;28;20078;-82
2021/03/11 07:37:00;;;;;;;22.50;7.22;;;11.10;72.10;;;;;;4986384;28;20129;-78
2021/03/11 07:39:32;;;;;;;23.70;6.95;;;11.10;72.10;;;;;;5022869;28;20479;-82
2021/03/11 07:41:59;;;;;;;20.30;6.35;;;11.10;72.10;;;;;;5007905;28;20541;-81
2021/03/11 07:44:26;;;;;;;31.40;7.10;;;11.10;72.10;;;;;;4999286;28;20308;-84
2021/03/11 07:46:53;;;;;;;30.92;7.90;;;11.20;72.30;;;;;;4997142;28;20128;-83
2021/03/11 07:49:20;;;;;;;24.83;8.23;;;11.20;72.30;;;;;;5003678;28;20366;-82
2021/03/11 07:51:47;;;;;;;22.23;7.53;;;11.10;72.20;;;;;;5006741;28;20496;-81
2021/03/11 07:54:14;;;;;;;29.65;7.68;;;11.20;72.30;;;;;;5006562;28;20034;-87
2021/03/11 07:56:40;;;;;;;26.77;7.07;;;11.20;72.30;;;;;;5008327;28;20061;-80
2021/03/11 07:59:08;;;;;;;20.38;7.28;;;11.30;72.50;;;;;;5006589;28;20030;-85
2021/03/11 08:01:43;;;;;;;17.27;6.47;;;11.30;72.50;;;;;;5006173;28;20057;-88
2021/03/11 08:04:12;;;;;;;22.33;7.80;;;11.30;72.50;;;;;;5007276;28;20426;-81
2021/03/11 08:06:38;;;;;;;27.50;7.55;;;11.30;72.50;;;;;;5008044;28;20124;-86
2021/03/11 08:09:04;;;;;;;26.38;7.82;;;11.30;72.40;;;;;;5022810;28;20098;-80
2021/03/11 08:11:39;;;;;;;25.35;8.23;;;11.30;72.40;;;;;;5006032;28;20029;-80
2021/03/11 08:14:21;;;;;;;20.15;6.70;;;11.40;72.50;;;;;;5005643;28;20033;-86
2021/03/11 08:16:49;;;;;;;24.13;8.95;;;11.40;72.50;;;;;;5005947;28;20121;-80
2021/03/11 08:19:48;;;;;;;21.25;6.75;;;11.40;72.50;;;;;;5006124;28;20066;-80
2021/03/11 08:22:14;;;;;;;16.13;5.50;;;11.50;72.60;;;;;;5007401;28;20065;-88
2021/03/11 08:24:47;;;;;;;22.42;6.45;;;11.50;72.60;;;;;;5004279;28;20520;-85
2021/03/11 08:27:31;;;;;;;23.17;6.82;;;11.60;72.70;;;;;;5005801;28;20041;-85
2021/03/11 08:29:58;;;;;;;21.88;6.65;;;11.60;72.60;;;;;;4986826;28;20033;-80
2021/03/11 08:32:47;;;;;;;22.92;7.32;;;11.70;72.60;;;;;;4990484;28;20030;-84
2021/03/11 08:35:29;;;;;;;22.30;7.40;;;11.80;72.80;;;;;;5022704;28;20100;-85
2021/03/11 08:37:56;;;;;;;29.38;8.05;;;11.90;73.00;;;;;;5005007;28;20034;-82
2021/03/11 08:40:39;;;;;;;19.00;6.32;;;11.90;73.00;;;;;;5004341;28;20509;-79
2021/03/11 08:43:05;;;;;;;25.05;7.28;;;12.10;73.40;;;;;;5004165;28;20069;-81
2021/03/11 08:45:37;;;;;;;26.25;8.35;;;12.10;73.20;;;;;;5003942;28;20218;-80
2021/03/11 08:48:19;;;;;;;23.73;5.97;;;12.20;73.20;;;;;;5004280;28;20137;-81
2021/03/11 08:50:50;;;;;;;24.33;6.60;;;12.20;73.10;;;;;;4988101;28;20030;-79
2021/03/11 08:53:37;;;;;;;26.83;6.50;;;12.30;73.20;;;;;;5003709;28;20117;-81
2021/03/11 08:56:18;;;;;;;28.60;7.65;;;12.30;73.20;;;;;;5002737;28;20045;-81
2021/03/11 08:58:56;;;;;;;19.35;5.75;;;12.40;73.20;;;;;;5005781;28;20450;-89
2021/03/11 09:01:31;;;;;;;17.35;5.38;;;12.30;72.90;;;;;;5005908;28;20045;-84
2021/03/11 09:03:58;;;;;;;14.38;5.95;;;12.30;72.80;;;;;;5006176;28;20044;-86
2021/03/11 09:06:49;;;;;;;25.98;6.82;;;12.40;73.00;;;;;;5005884;28;20334;-86
2021/03/11 09:09:16;;;;;;;14.82;5.75;;;12.30;72.80;;;;;;5005414;28;20026;-85
2021/03/11 09:11:55;;;;;;;14.57;5.45;;;12.20;72.60;;;;;;5011226;28;20038;-83
2021/03/11 09:14:26;;;;;;;15.68;4.47;;;12.10;72.60;;;;;;5004944;28;20505;-81
2021/03/11 09:16:52;;;;;;;13.63;5.80;;;12.20;72.90;;;;;;5005381;28;20038;-87
2021/03/11 09:19:18;;;;;;;14.70;5.45;;;12.20;72.90;;;;;;5006681;28;20101;-82
2021/03/11 09:21:44;;;;;;;21.80;6.05;;;12.10;72.80;;;;;;5004937;28;20041;-81
2021/03/11 09:24:21;;;;;;;14.48;4.90;;;12.10;72.70;;;;;;5004985;28;20524;-80
2021/03/11 09:26:47;;;;;;;14.52;4.70;;;12.10;72.80;;;;;;5005233;28;20029;-82
2021/03/11 09:29:14;;;;;;;16.52;5.22;;;12.10;72.80;;;;;;4987886;28;20056;-81
2021/03/11 09:31:40;;;;;;;12.90;4.00;;;12.10;72.80;;;;;;5005533;28;20100;-80
2021/03/11 09:34:07;;;;;;;13.68;4.07;;;12.10;72.80;;;;;;4988295;28;20025;-80
2021/03/11 09:36:33;;;;;;;16.15;5.53;;;12.10;72.80;;;;;;5005097;28;20033;-84
2021/03/11 09:39:04;;;;;;;11.13;4.13;;;12.20;72.90;;;;;;5004511;28;20038;-80
2021/03/11 09:41:31;;;;;;;14.38;4.30;;;12.20;72.80;;;;;;5005011;28;20077;-80
2021/03/11 09:44:03;;;;;;;17.17;4.45;;;12.30;72.80;;;;;;5005155;28;20026;-81
2021/03/11 09:46:29;;;;;;;8.05;3.78;;;12.30;72.70;;;;;;5004080;28;20095;-78
2021/03/11 09:48:57;;;;;;;13.20;4.38;;;12.40;72.70;;;;;;5004517;28;20428;-81
2021/03/11 09:51:28;;;;;;;9.45;4.03;;;12.30;72.50;;;;;;5003330;28;20034;-82
2021/03/11 09:53:57;;;;;;;14.32;4.13;;;12.30;72.50;;;;;;4987147;28;20136;-79
2021/03/11 09:56:24;;;;;;;15.55;4.57;;;12.40;72.60;;;;;;4987614;28;20072;-79
2021/03/11 09:58:58;;;;;;;17.00;4.78;;;12.30;72.40;;;;;;5004692;28;20161;-79
2021/03/11 10:01:44;;;;;;;15.70;5.43;;;12.30;72.40;;;;;;5005376;28;20055;-82
2021/03/11 10:04:23;;;;;;;14.45;3.97;;;12.30;72.50;;;;;;5020711;28;20076;-80
2021/03/11 10:06:55;;;;;;;14.18;4.25;;;12.30;72.50;;;;;;5020083;28;20417;-79
2021/03/11 10:09:22;;;;;;;11.32;4.00;;;12.40;72.70;;;;;;5005317;28;20106;-80
2021/03/11 10:11:53;;;;;;;16.42;4.05;;;12.40;72.60;;;;;;5004106;28;20199;-85
2021/03/11 10:14:28;;;;;;;13.13;4.28;;;12.40;72.50;;;;;;5004518;28;20034;-85
2021/03/11 10:17:02;;;;;;;9.27;4.07;;;12.40;72.50;;;;;;5004646;28;20492;-80
2021/03/11 10:19:28;;;;;;;16.17;4.72;;;12.40;72.50;;;;;;5003964;28;20034;-80
2021/03/11 10:22:05;;;;;;;11.23;4.53;;;12.40;72.60;;;;;;5005131;28;20409;-83
2021/03/11 10:24:34;;;;;;;9.18;3.95;;;12.50;72.90;;;;;;5003368;28;20026;-81
2021/03/11 10:27:01;;;;;;;12.02;4.88;;;12.50;72.80;;;;;;5003913;28;20040;-82
2021/03/11 10:29:30;;;;;;;12.80;4.22;;;12.70;73.00;;;;;;4987367;28;20504;-80
2021/03/11 10:32:01;;;;;;;11.73;4.75;;;12.80;72.90;;;;;;5003884;28;20038;-83
2021/03/11 10:34:28;;;;;;;15.55;4.20;;;12.90;72.90;;;;;;5004500;28;20456;-83
2021/03/11 10:37:01;;;;;;;10.90;4.32;;;12.90;72.70;;;;;;5004418;28;20029;-84
2021/03/11 10:39:28;;;;;;;10.25;3.63;;;12.90;72.50;;;;;;4987527;28;20398;-83
2021/03/11 10:42:05;;;;;;;17.77;4.75;;;12.90;72.50;;;;;;5005312;28;20494;-84
2021/03/11 10:44:35;;;;;;;13.45;4.47;;;12.90;72.70;;;;;;5005565;28;20029;-82
2021/03/11 10:47:17;;;;;;;15.93;5.22;;;13.10;73.20;;;;;;5004996;28;20081;-81
2021/03/11 10:49:44;;;;;;;14.40;4.22;;;13.30;73.40;;;;;;5003763;28;20451;-83
2021/03/11 10:52:17;;;;;;;12.85;4.32;;;13.40;73.10;;;;;;5006006;28;20283;-80
2021/03/11 10:54:43;;;;;;;9.05;2.60;;;13.50;72.90;;;;;;5006890;28;20030;-83
2021/03/11 10:57:17;;;;;;;13.90;3.88;;;13.60;72.60;;;;;;5008907;28;20116;-81
2021/03/11 10:59:57;;;;;;;8.95;3.47;;;13.60;72.40;;;;;;5008632;28;20159;-85
2021/03/11 11:02:28;;;;;;;11.18;3.50;;;13.70;72.50;;;;;;5006977;28;20096;-81
2021/03/11 11:04:56;;;;;;;11.32;3.92;;;13.80;72.50;;;;;;5006811;28;20048;-82
2021/03/11 11:07:23;;;;;;;8.05;3.38;;;13.90;72.50;;;;;;5006174;28;20057;-81
2021/03/11 11:09:50;;;;;;;12.82;4.13;;;14.10;72.50;;;;;;5008403;28;20136;-81
2021/03/11 11:12:18;;;;;;;10.98;3.40;;;14.10;72.30;;;;;;5007244;28;20066;-80
2021/03/11 11:14:45;;;;;;;11.77;4.22;;;14.20;72.20;;;;;;5007082;28;20042;-81
2021/03/11 11:17:12;;;;;;;16.00;4.15;;;14.30;72.20;;;;;;5005847;28;20393;-79
2021/03/11 11:19:39;;;;;;;15.52;4.97;;;14.50;72.40;;;;;;5005404;28;20080;-80
2021/03/11 11:22:05;;;;;;;12.10;4.20;;;14.50;72.10;;;;;;4989837;28;20042;-80
2021/03/11 11:24:31;;;;;;;13.95;5.03;;;14.60;72.10;;;;;;5005940;28;20526;-79
2021/03/11 11:26:58;;;;;;;15.35;4.75;;;14.60;71.90;;;;;;5006253;28;20030;-81
2021/03/11 11:29:25;;;;;;;11.27;4.15;;;14.50;71.50;;;;;;5006255;28;20075;-82
2021/03/11 11:31:51;;;;;;;11.18;4.28;;;14.50;71.50;;;;;;5006880;28;20129;-79
2021/03/11 11:34:19;;;;;;;13.07;4.03;;;14.50;71.40;;;;;;5005746;28;20044;-80
2021/03/11 11:36:46;;;;;;;10.23;4.18;;;14.50;71.40;;;;;;4989477;28;20279;-80
2021/03/11 11:39:12;;;;;;;11.57;3.35;;;14.60;71.40;;;;;;5007326;28;20082;-79
2021/03/11 11:41:40;;;;;;;9.45;4.38;;;14.60;71.30;;;;;;5006069;28;20434;-80
2021/03/11 11:44:07;;;;;;;11.07;3.38;;;14.50;70.90;;;;;;5022737;28;20045;-79
2021/03/11 11:46:33;;;;;;;11.18;3.97;;;14.50;70.90;;;;;;5007367;28;20454;-80
2021/03/11 11:48:59;;;;;;;12.00;3.50;;;14.50;70.80;;;;;;5007579;28;20117;-81
2021/03/11 11:51:25;;;;;;;12.45;3.33;;;14.50;70.80;;;;;;5006141;28;20030;-84
2021/03/11 11:53:52;;;;;;;7.75;3.55;;;14.50;70.70;;;;;;5005605;28;20029;-81
2021/03/11 11:56:21;;;;;;;12.43;3.80;;;14.50;70.60;;;;;;5005605;28;20084;-81
2021/03/11 11:58:50;;;;;;;14.65;4.13;;;14.40;70.40;;;;;;4989890;28;20036;-83
2021/03/11 12:01:17;;;;;;;9.13;3.00;;;14.40;70.40;;;;;;4989389;28;20034;-80
2021/03/11 12:03:43;;;;;;;11.90;3.95;;;14.40;70.40;;;;;;5006694;28;20030;-83
2021/03/11 12:06:09;;;;;;;5.45;2.78;;;14.40;70.50;;;;;;5007188;28;20049;-81
2021/03/11 12:08:36;;;;;;;10.32;3.75;;;14.50;70.70;;;;;;5005460;28;20033;-81
2021/03/11 12:11:02;;;;;;;9.50;3.63;;;14.60;70.80;;;;;;5021299;28;20038;-79
2021/03/11 12:13:28;;;;;;;11.07;3.80;;;14.70;70.70;;;;;;5005785;28;20030;-82
2021/03/11 12:15:54;;;;;;;10.27;3.35;;;14.80;70.60;;;;;;5004979;28;20037;-84
2021/03/11 12:18:20;;;;;;;8.32;3.70;;;14.80;70.50;;;;;;5005552;28;20354;-79
2021/03/11 12:20:46;;;;;;;11.48;3.60;;;14.80;70.50;;;;;;5006214;28;20492;-84
2021/03/11 12:23:12;;;;;;;7.85;3.72;;;14.80;70.50;;;;;;4989204;28;20042;-78
2021/03/11 12:25:38;;;;;;;11.52;3.90;;;14.80;70.50;;;;;;5022511;28;20431;-80
2021/03/11 12:28:06;;;;;;;8.80;3.92;;;14.80;70.40;;;;;;4989675;28;20104;-81
2021/03/11 12:30:35;;;;;;;9.25;3.38;;;14.80;70.30;;;;;;5006175;28;20095;-80
2021/03/11 12:33:02;;;;;;;8.35;2.72;;;14.90;70.50;;;;;;5005033;28;20484;-79
2021/03/11 12:35:29;;;;;;;13.23;3.67;;;14.80;70.40;;;;;;5007027;28;20076;-83
2021/03/11 12:37:55;;;;;;;10.75;3.83;;;14.90;70.60;;;;;;5005830;28;20041;-80
2021/03/11 12:40:23;;;;;;;8.32;3.65;;;15.00;70.80;;;;;;5005933;28;20156;-82
2021/03/11 12:42:51;;;;;;;10.45;3.70;;;15.00;70.60;;;;;;5005081;28;20040;-82
2021/03/11 12:45:21;;;;;;;10.70;3.72;;;15.10;70.60;;;;;;5004702;28;20034;-82
2021/03/11 12:47:47;;;;;;;8.07;3.80;;;15.00;70.30;;;;;;4987626;28;20084;-82